King Sugar — 3FIP2 — position and weather

sailwx.info

Track history (hours):
 
Tides and Currents Weather Stations Pressure Air Temp Water Temp Dewpoint Dewpoint Depression Visibility Wind Speed Wind Dir Waves Ship Positions

King Sugar

Last reported at 2017-Aug-28 06:33 UTC. Time now 2017-Sep-24 06:46 UTC.
Position N 27°20' W 014°17'.
Warning: this ship's position is 27 days out of date.

Length 169 m; draft 8.2 m.

Type: Cargo ship. MMSI: 355883000.

Date/timePositionNaut miles runAvg speedWind from/ knotsBaromVisibWave heightAir tempDewpointWater temp
2017-Aug-28 06:33N 27°20' W 014°17'7413.9
2017-Aug-28 01:11N 28°19' W 013°26'413.8
2017-Aug-28 00:52N 28°22' W 013°23'514.0
2017-Aug-28 00:30N 28°26' W 013°19'814.1
2017-Aug-27 23:58N 28°33' W 013°14'2013.8
2017-Aug-27 22:32N 28°48' W 012°60'613.4
2017-Aug-27 22:05N 28°53' W 012°56'213.5
2017-Aug-27 21:58N 28°54' W 012°55'813.8
2017-Aug-27 21:23N 29°01' W 012°50'814.0
2017-Aug-27 20:50N 29°07' W 012°45'514.0
2017-Aug-27 20:27N 29°12' W 012°42'30113.6
2017-Aug-26 22:13N 33°26' W 009°32'714.0
2017-Aug-26 21:45N 33°31' W 009°27'713.9
2017-Aug-26 21:14N 33°37' W 009°22'513.7
2017-Aug-26 20:55N 33°41' W 009°19'613.7
2017-Aug-26 20:30N 33°45' W 009°16'713.7
2017-Aug-26 20:00N 33°51' W 009°11'1113.7
2017-Aug-26 19:13N 33°60' W 009°04'11913.5
2017-Aug-26 10:24N 35°41' W 007°49'613.7
2017-Aug-26 09:56N 35°47' W 007°45'613.8
2017-Aug-26 09:30N 35°52' W 007°42'713.6
2017-Aug-26 09:01N 35°57' W 007°36'714.2
2017-Aug-26 08:31N 36°03' W 007°31'713.8
2017-Aug-26 08:00N 36°09' W 007°26'713.2
2017-Aug-26 07:31N 36°14' W 007°21'813.3
2017-Aug-26 06:53N 36°21' W 007°15'1013.7
2017-Aug-26 06:08N 36°30' W 007°09'1413.4
2017-Aug-26 05:07N 36°41' W 007°00'213.4
2017-Aug-26 04:56N 36°43' W 006°59'37 1.1
2017-Aug-24 19:16N 36°13' W 006°32'413.7
2017-Aug-24 18:57N 36°09' W 006°29'613.7
2017-Aug-24 18:28N 36°04' W 006°26'612.2
2017-Aug-24 18:00N 36°01' W 006°20'712.9
2017-Aug-24 17:26N 35°60' W 006°10'2813.6
2017-Aug-24 15:22N 35°57' W 005°36'514.4
2017-Aug-24 15:00N 35°59' W 005°30'611.9
2017-Aug-24 14:30N 35°59' W 005°22'5 9.3
2017-Aug-24 14:00N 35°55' W 005°19'0 0.5
2017-Aug-24 13:28N 35°55' W 005°20'0 0.0
2017-Aug-24 13:00N 35°55' W 005°20'0 0.0
2017-Aug-24 12:29N 35°55' W 005°20'0 0.1
2017-Aug-24 11:59N 35°55' W 005°20'0 0.1
2017-Aug-24 11:23N 35°55' W 005°20'0 0.1
2017-Aug-24 10:59N 35°55' W 005°20'0 0.1
2017-Aug-24 10:29N 35°55' W 005°20'0 0.0
2017-Aug-24 09:59N 35°55' W 005°20'0 0.0
2017-Aug-24 09:29N 35°55' W 005°20'0 0.0
2017-Aug-24 08:59N 35°55' W 005°20'0 0.0
2017-Aug-24 08:29N 35°55' W 005°20'0 0.0
2017-Aug-24 07:59N 35°55' W 005°20'0 0.0
2017-Aug-24 07:29N 35°55' W 005°20'0 0.0
2017-Aug-24 06:59N 35°55' W 005°20'0 0.3
2017-Aug-24 06:29N 35°55' W 005°19'0 0.1
2017-Aug-24 05:59N 35°55' W 005°19'0 0.0
2017-Aug-24 05:29N 35°55' W 005°19'0 0.0
2017-Aug-24 04:59N 35°55' W 005°19'0 0.0
2017-Aug-24 04:29N 35°55' W 005°19'0 0.0
2017-Aug-24 03:59N 35°55' W 005°19'0 0.0
2017-Aug-24 03:29N 35°55' W 005°19'0 0.0
2017-Aug-24 02:59N 35°55' W 005°19'0 0.1
2017-Aug-24 02:31N 35°55' W 005°19'0 0.1
2017-Aug-24 01:59N 35°55' W 005°20'0 0.0
2017-Aug-24 01:29N 35°55' W 005°20'0 0.0
2017-Aug-24 00:59N 35°55' W 005°19'0 0.0
2017-Aug-24 00:29N 35°55' W 005°20'0 0.0
2017-Aug-23 23:59N 35°55' W 005°20'0 0.2
2017-Aug-23 23:29N 35°55' W 005°20'0 0.0
2017-Aug-23 22:59N 35°55' W 005°20'0 0.0
2017-Aug-23 22:29N 35°55' W 005°20'1 1.9
2017-Aug-23 22:01N 35°55' W 005°20'3 6.3
2017-Aug-23 21:31N 35°57' W 005°24'7014.4
2017-Aug-23 16:37N 35°56' W 006°50'214.3
2017-Aug-23 16:30N 35°56' W 006°52'714.1
2017-Aug-23 16:00N 35°58' W 007°01'813.8
2017-Aug-23 15:24N 35°59' W 007°11'513.7
2017-Aug-23 15:00N 36°00' W 007°18'1413.7
2017-Aug-23 14:00N 36°02' W 007°34'713.9
2017-Aug-23 13:30N 36°03' W 007°43'714.3
2017-Aug-23 13:01N 36°04' W 007°52'714.4
2017-Aug-23 12:30N 36°05' W 008°01'714.5
2017-Aug-23 12:00N 36°05' W 008°09'1214.6
2017-Aug-23 11:11N 36°07' W 008°24'314.8
2017-Aug-23 11:00N 36°08' W 008°27'715.0
2017-Aug-23 10:30N 36°09' W 008°36'815.2
2017-Aug-23 10:00N 36°11' W 008°46'815.2
2017-Aug-23 09:30N 36°13' W 008°55'815.2
2017-Aug-23 09:00N 36°14' W 009°04'714.7
2017-Aug-23 08:31N 36°16' W 009°13'714.6
2017-Aug-23 08:01N 36°18' W 009°22'714.5
2017-Aug-23 07:31N 36°20' W 009°30'714.1
2017-Aug-23 07:01N 36°23' W 009°38'714.1
2017-Aug-23 06:30N 36°29' W 009°43'714.6
2017-Aug-23 06:01N 36°35' W 009°48'714.6
2017-Aug-23 05:30N 36°42' W 009°52'714.2
2017-Aug-23 05:00N 36°48' W 009°57'714.2
2017-Aug-23 04:31N 36°54' W 010°01'714.4
2017-Aug-23 04:00N 37°01' W 010°05'714.7
2017-Aug-23 03:30N 37°07' W 010°09'714.5
2017-Aug-23 03:01N 37°14' W 010°13'714.5
2017-Aug-23 02:31N 37°20' W 010°17'714.1
2017-Aug-23 02:00N 37°27' W 010°18'714.8
2017-Aug-23 01:31N 37°35' W 010°19'714.9
2017-Aug-23 01:01N 37°42' W 010°20'714.9
2017-Aug-23 00:31N 37°49' W 010°20'714.8
2017-Aug-23 00:00N 37°57' W 010°21'714.2
2017-Aug-22 23:31N 38°04' W 010°20'714.7
2017-Aug-22 23:00N 38°11' W 010°20'714.5
2017-Aug-22 22:31N 38°18' W 010°20'714.2
2017-Aug-22 22:01N 38°26' W 010°20'715.0
2017-Aug-22 21:31N 38°33' W 010°20'714.7
2017-Aug-22 21:01N 38°40' W 010°20'714.4
2017-Aug-22 20:31N 38°48' W 010°20'815.0
2017-Aug-22 20:00N 38°55' W 010°20'815.3
2017-Aug-22 19:31N 39°03' W 010°19'815.1
2017-Aug-22 19:01N 39°10' W 010°19'714.8
2017-Aug-22 18:31N 39°18' W 010°19'714.9
2017-Aug-22 18:01N 39°25' W 010°18'714.5
2017-Aug-22 17:30N 39°32' W 010°18'714.4
2017-Aug-22 17:00N 39°40' W 010°18'713.8
2017-Aug-22 16:30N 39°46' W 010°14'714.3
2017-Aug-22 16:00N 39°50' W 010°07'714.6
2017-Aug-22 15:30N 39°55' W 009°60'714.5
2017-Aug-22 15:01N 39°60' W 009°52'714.1
2017-Aug-22 14:30N 40°04' W 009°45'714.0
2017-Aug-22 14:00N 40°08' W 009°38'714.2
2017-Aug-22 13:30N 40°13' W 009°30'714.2
2017-Aug-22 13:00N 40°17' W 009°23'714.2
2017-Aug-22 12:30N 40°21' W 009°16'714.1
2017-Aug-22 12:00N 40°26' W 009°09'914.2
2017-Aug-22 11:21N 40°33' W 008°60'514.0
2017-Aug-22 10:59N 40°35' W 008°54'612.5
2017-Aug-22 10:30N 40°38' W 008°47'3 0.5
2017-Aug-22 03:58N 40°39' W 008°43'0 0.0
2017-Aug-22 03:28N 40°39' W 008°43'0 0.0
2017-Aug-22 02:58N 40°39' W 008°43'0 0.0
2017-Aug-22 02:28N 40°39' W 008°43'0 0.0
2017-Aug-22 01:58N 40°39' W 008°43'0 0.0
2017-Aug-22 01:28N 40°39' W 008°43'0 0.0
2017-Aug-22 00:46N 40°39' W 008°43'0 0.0
2017-Aug-22 00:28N 40°39' W 008°43'0 0.0
2017-Aug-21 23:58N 40°39' W 008°43'0 0.0
2017-Aug-21 23:28N 40°39' W 008°43'0 0.0
2017-Aug-21 22:40N 40°39' W 008°43'0 0.0
2017-Aug-21 20:10N 40°39' W 008°43'0 0.0
2017-Aug-21 19:16N 40°39' W 008°43'0 0.0
2017-Aug-21 18:58N 40°39' W 008°43'0 0.0
2017-Aug-21 18:28N 40°39' W 008°43'0 0.0
2017-Aug-21 17:58N 40°39' W 008°43'0 0.0
2017-Aug-21 17:22N 40°39' W 008°43'0 0.0
2017-Aug-21 16:52N 40°39' W 008°43'0 0.0
2017-Aug-21 05:52N 40°39' W 008°43'0 0.0
2017-Aug-21 05:16N 40°39' W 008°43'0 0.0
2017-Aug-21 04:58N 40°39' W 008°43'0 0.0
2017-Aug-21 04:16N 40°39' W 008°43'0 0.0
2017-Aug-21 03:58N 40°39' W 008°43'0 0.0
2017-Aug-21 03:28N 40°39' W 008°43'0 0.0
2017-Aug-21 02:58N 40°39' W 008°43'0 0.0
2017-Aug-21 02:28N 40°39' W 008°43'0 0.0
2017-Aug-21 01:58N 40°39' W 008°43'0 0.0
2017-Aug-21 01:28N 40°39' W 008°43'0 0.0
2017-Aug-21 00:58N 40°39' W 008°43'0 0.0
2017-Aug-21 00:28N 40°39' W 008°43'0 0.0
2017-Aug-20 23:58N 40°39' W 008°43'0 0.0
2017-Aug-20 23:19N 40°39' W 008°43'0 0.0
2017-Aug-20 22:58N 40°39' W 008°43'0 0.0
2017-Aug-20 22:28N 40°39' W 008°43'0 0.0
2017-Aug-20 21:58N 40°39' W 008°43'0 0.0
2017-Aug-20 07:34N 40°39' W 008°43'0 0.0
2017-Aug-20 07:22N 40°39' W 008°43'0 0.0
2017-Aug-20 06:46N 40°39' W 008°43'0 0.0
2017-Aug-20 06:25N 40°39' W 008°43'0 0.0
2017-Aug-20 05:58N 40°39' W 008°43'0 0.0
2017-Aug-20 05:28N 40°39' W 008°43'0 0.0
2017-Aug-20 04:58N 40°39' W 008°43'0 0.0
2017-Aug-20 04:28N 40°39' W 008°43'0 0.0
2017-Aug-20 03:58N 40°39' W 008°43'0 0.0
2017-Aug-20 03:28N 40°39' W 008°43'0 0.0
2017-Aug-20 00:52N 40°39' W 008°43'0 0.0
2017-Aug-19 23:58N 40°39' W 008°43'0 0.0
2017-Aug-19 23:28N 40°39' W 008°43'0 0.0
2017-Aug-19 22:58N 40°39' W 008°43'0 0.0
2017-Aug-19 20:34N 40°39' W 008°43'0 0.0
2017-Aug-19 20:22N 40°39' W 008°43'0 0.0
2017-Aug-19 19:58N 40°39' W 008°43'0 0.0
2017-Aug-19 07:58N 40°39' W 008°43'0 0.0
2017-Aug-19 07:28N 40°39' W 008°43'0 0.0
2017-Aug-19 04:52N 40°39' W 008°43'0 0.0
2017-Aug-19 04:22N 40°39' W 008°43'0 0.0
2017-Aug-19 03:58N 40°39' W 008°43'0 0.0
2017-Aug-19 03:28N 40°39' W 008°43'0 0.0
2017-Aug-19 02:58N 40°39' W 008°43'  
Track history (hours):
 
Tides and Currents Weather Stations Pressure Air Temp Water Temp Dewpoint Dewpoint Depression Visibility Wind Speed Wind Dir Waves Ship Positions

King Sugar

Last reported at 2017-Aug-28 06:33 UTC. Time now 2017-Sep-24 06:46 UTC.
Position N 27°20' W 014°17'.
Warning: this ship's position is 27 days out of date.

Length 169 m; draft 8.2 m.

Type: Cargo ship. MMSI: 355883000.

Date/timePositionNaut miles runAvg speedWind from/ knotsBaromVisibWave heightAir tempDewpointWater temp
2017-Aug-28 06:33N 27°20' W 014°17'7413.9
2017-Aug-28 01:11N 28°19' W 013°26'413.8
2017-Aug-28 00:52N 28°22' W 013°23'514.0
2017-Aug-28 00:30N 28°26' W 013°19'814.1
2017-Aug-27 23:58N 28°33' W 013°14'2013.8
2017-Aug-27 22:32N 28°48' W 012°60'613.4
2017-Aug-27 22:05N 28°53' W 012°56'213.5
2017-Aug-27 21:58N 28°54' W 012°55'813.8
2017-Aug-27 21:23N 29°01' W 012°50'814.0
2017-Aug-27 20:50N 29°07' W 012°45'514.0
2017-Aug-27 20:27N 29°12' W 012°42'30113.6
2017-Aug-26 22:13N 33°26' W 009°32'714.0
2017-Aug-26 21:45N 33°31' W 009°27'713.9
2017-Aug-26 21:14N 33°37' W 009°22'513.7
2017-Aug-26 20:55N 33°41' W 009°19'613.7
2017-Aug-26 20:30N 33°45' W 009°16'713.7
2017-Aug-26 20:00N 33°51' W 009°11'1113.7
2017-Aug-26 19:13N 33°60' W 009°04'11913.5
2017-Aug-26 10:24N 35°41' W 007°49'613.7
2017-Aug-26 09:56N 35°47' W 007°45'613.8
2017-Aug-26 09:30N 35°52' W 007°42'713.6
2017-Aug-26 09:01N 35°57' W 007°36'714.2
2017-Aug-26 08:31N 36°03' W 007°31'713.8
2017-Aug-26 08:00N 36°09' W 007°26'713.2
2017-Aug-26 07:31N 36°14' W 007°21'813.3
2017-Aug-26 06:53N 36°21' W 007°15'1013.7
2017-Aug-26 06:08N 36°30' W 007°09'1413.4
2017-Aug-26 05:07N 36°41' W 007°00'213.4
2017-Aug-26 04:56N 36°43' W 006°59'37 1.1
2017-Aug-24 19:16N 36°13' W 006°32'413.7
2017-Aug-24 18:57N 36°09' W 006°29'613.7
2017-Aug-24 18:28N 36°04' W 006°26'612.2
2017-Aug-24 18:00N 36°01' W 006°20'712.9
2017-Aug-24 17:26N 35°60' W 006°10'2813.6
2017-Aug-24 15:22N 35°57' W 005°36'514.4
2017-Aug-24 15:00N 35°59' W 005°30'611.9
2017-Aug-24 14:30N 35°59' W 005°22'5 9.3
2017-Aug-24 14:00N 35°55' W 005°19'0 0.5
2017-Aug-24 13:28N 35°55' W 005°20'0 0.0
2017-Aug-24 13:00N 35°55' W 005°20'0 0.0
2017-Aug-24 12:29N 35°55' W 005°20'0 0.1
2017-Aug-24 11:59N 35°55' W 005°20'0 0.1
2017-Aug-24 11:23N 35°55' W 005°20'0 0.1
2017-Aug-24 10:59N 35°55' W 005°20'0 0.1
2017-Aug-24 10:29N 35°55' W 005°20'0 0.0
2017-Aug-24 09:59N 35°55' W 005°20'0 0.0
2017-Aug-24 09:29N 35°55' W 005°20'0 0.0
2017-Aug-24 08:59N 35°55' W 005°20'0 0.0
2017-Aug-24 08:29N 35°55' W 005°20'0 0.0
2017-Aug-24 07:59N 35°55' W 005°20'0 0.0
2017-Aug-24 07:29N 35°55' W 005°20'0 0.0
2017-Aug-24 06:59N 35°55' W 005°20'0 0.3
2017-Aug-24 06:29N 35°55' W 005°19'0 0.1
2017-Aug-24 05:59N 35°55' W 005°19'0 0.0
2017-Aug-24 05:29N 35°55' W 005°19'0 0.0
2017-Aug-24 04:59N 35°55' W 005°19'0 0.0
2017-Aug-24 04:29N 35°55' W 005°19'0 0.0
2017-Aug-24 03:59N 35°55' W 005°19'0 0.0
2017-Aug-24 03:29N 35°55' W 005°19'0 0.0
2017-Aug-24 02:59N 35°55' W 005°19'0 0.1
2017-Aug-24 02:31N 35°55' W 005°19'0 0.1
2017-Aug-24 01:59N 35°55' W 005°20'0 0.0
2017-Aug-24 01:29N 35°55' W 005°20'0 0.0
2017-Aug-24 00:59N 35°55' W 005°19'0 0.0
2017-Aug-24 00:29N 35°55' W 005°20'0 0.0
2017-Aug-23 23:59N 35°55' W 005°20'0 0.2
2017-Aug-23 23:29N 35°55' W 005°20'0 0.0
2017-Aug-23 22:59N 35°55' W 005°20'0 0.0
2017-Aug-23 22:29N 35°55' W 005°20'1 1.9
2017-Aug-23 22:01N 35°55' W 005°20'3 6.3
2017-Aug-23 21:31N 35°57' W 005°24'7014.4
2017-Aug-23 16:37N 35°56' W 006°50'214.3
2017-Aug-23 16:30N 35°56' W 006°52'714.1
2017-Aug-23 16:00N 35°58' W 007°01'813.8
2017-Aug-23 15:24N 35°59' W 007°11'513.7
2017-Aug-23 15:00N 36°00' W 007°18'1413.7
2017-Aug-23 14:00N 36°02' W 007°34'713.9
2017-Aug-23 13:30N 36°03' W 007°43'714.3
2017-Aug-23 13:01N 36°04' W 007°52'714.4
2017-Aug-23 12:30N 36°05' W 008°01'714.5
2017-Aug-23 12:00N 36°05' W 008°09'1214.6
2017-Aug-23 11:11N 36°07' W 008°24'314.8
2017-Aug-23 11:00N 36°08' W 008°27'715.0
2017-Aug-23 10:30N 36°09' W 008°36'815.2
2017-Aug-23 10:00N 36°11' W 008°46'815.2
2017-Aug-23 09:30N 36°13' W 008°55'815.2
2017-Aug-23 09:00N 36°14' W 009°04'714.7
2017-Aug-23 08:31N 36°16' W 009°13'714.6
2017-Aug-23 08:01N 36°18' W 009°22'714.5
2017-Aug-23 07:31N 36°20' W 009°30'714.1
2017-Aug-23 07:01N 36°23' W 009°38'714.1
2017-Aug-23 06:30N 36°29' W 009°43'714.6
2017-Aug-23 06:01N 36°35' W 009°48'714.6
2017-Aug-23 05:30N 36°42' W 009°52'714.2
2017-Aug-23 05:00N 36°48' W 009°57'714.2
2017-Aug-23 04:31N 36°54' W 010°01'714.4
2017-Aug-23 04:00N 37°01' W 010°05'714.7
2017-Aug-23 03:30N 37°07' W 010°09'714.5
2017-Aug-23 03:01N 37°14' W 010°13'714.5
2017-Aug-23 02:31N 37°20' W 010°17'714.1
2017-Aug-23 02:00N 37°27' W 010°18'714.8
2017-Aug-23 01:31N 37°35' W 010°19'714.9
2017-Aug-23 01:01N 37°42' W 010°20'714.9
2017-Aug-23 00:31N 37°49' W 010°20'714.8
2017-Aug-23 00:00N 37°57' W 010°21'714.2
2017-Aug-22 23:31N 38°04' W 010°20'714.7
2017-Aug-22 23:00N 38°11' W 010°20'714.5
2017-Aug-22 22:31N 38°18' W 010°20'714.2
2017-Aug-22 22:01N 38°26' W 010°20'715.0
2017-Aug-22 21:31N 38°33' W 010°20'714.7
2017-Aug-22 21:01N 38°40' W 010°20'714.4
2017-Aug-22 20:31N 38°48' W 010°20'815.0
2017-Aug-22 20:00N 38°55' W 010°20'815.3
2017-Aug-22 19:31N 39°03' W 010°19'815.1
2017-Aug-22 19:01N 39°10' W 010°19'714.8
2017-Aug-22 18:31N 39°18' W 010°19'714.9
2017-Aug-22 18:01N 39°25' W 010°18'714.5
2017-Aug-22 17:30N 39°32' W 010°18'714.4
2017-Aug-22 17:00N 39°40' W 010°18'713.8
2017-Aug-22 16:30N 39°46' W 010°14'714.3
2017-Aug-22 16:00N 39°50' W 010°07'714.6
2017-Aug-22 15:30N 39°55' W 009°60'714.5
2017-Aug-22 15:01N 39°60' W 009°52'714.1
2017-Aug-22 14:30N 40°04' W 009°45'714.0
2017-Aug-22 14:00N 40°08' W 009°38'714.2
2017-Aug-22 13:30N 40°13' W 009°30'714.2
2017-Aug-22 13:00N 40°17' W 009°23'714.2
2017-Aug-22 12:30N 40°21' W 009°16'714.1
2017-Aug-22 12:00N 40°26' W 009°09'914.2
2017-Aug-22 11:21N 40°33' W 008°60'514.0
2017-Aug-22 10:59N 40°35' W 008°54'612.5
2017-Aug-22 10:30N 40°38' W 008°47'3 0.5
2017-Aug-22 03:58N 40°39' W 008°43'0 0.0
2017-Aug-22 03:28N 40°39' W 008°43'0 0.0
2017-Aug-22 02:58N 40°39' W 008°43'0 0.0
2017-Aug-22 02:28N 40°39' W 008°43'0 0.0
2017-Aug-22 01:58N 40°39' W 008°43'0 0.0
2017-Aug-22 01:28N 40°39' W 008°43'0 0.0
2017-Aug-22 00:46N 40°39' W 008°43'0 0.0
2017-Aug-22 00:28N 40°39' W 008°43'0 0.0
2017-Aug-21 23:58N 40°39' W 008°43'0 0.0
2017-Aug-21 23:28N 40°39' W 008°43'0 0.0
2017-Aug-21 22:40N 40°39' W 008°43'0 0.0
2017-Aug-21 20:10N 40°39' W 008°43'0 0.0
2017-Aug-21 19:16N 40°39' W 008°43'0 0.0
2017-Aug-21 18:58N 40°39' W 008°43'0 0.0
2017-Aug-21 18:28N 40°39' W 008°43'0 0.0
2017-Aug-21 17:58N 40°39' W 008°43'0 0.0
2017-Aug-21 17:22N 40°39' W 008°43'0 0.0
2017-Aug-21 16:52N 40°39' W 008°43'0 0.0
2017-Aug-21 05:52N 40°39' W 008°43'0 0.0
2017-Aug-21 05:16N 40°39' W 008°43'0 0.0
2017-Aug-21 04:58N 40°39' W 008°43'0 0.0
2017-Aug-21 04:16N 40°39' W 008°43'0 0.0
2017-Aug-21 03:58N 40°39' W 008°43'0 0.0
2017-Aug-21 03:28N 40°39' W 008°43'0 0.0
2017-Aug-21 02:58N 40°39' W 008°43'0 0.0
2017-Aug-21 02:28N 40°39' W 008°43'0 0.0
2017-Aug-21 01:58N 40°39' W 008°43'0 0.0
2017-Aug-21 01:28N 40°39' W 008°43'0 0.0
2017-Aug-21 00:58N 40°39' W 008°43'0 0.0
2017-Aug-21 00:28N 40°39' W 008°43'0 0.0
2017-Aug-20 23:58N 40°39' W 008°43'0 0.0
2017-Aug-20 23:19N 40°39' W 008°43'0 0.0
2017-Aug-20 22:58N 40°39' W 008°43'0 0.0
2017-Aug-20 22:28N 40°39' W 008°43'0 0.0
2017-Aug-20 21:58N 40°39' W 008°43'0 0.0
2017-Aug-20 07:34N 40°39' W 008°43'0 0.0
2017-Aug-20 07:22N 40°39' W 008°43'0 0.0
2017-Aug-20 06:46N 40°39' W 008°43'0 0.0
2017-Aug-20 06:25N 40°39' W 008°43'0 0.0
2017-Aug-20 05:58N 40°39' W 008°43'0 0.0
2017-Aug-20 05:28N 40°39' W 008°43'0 0.0
2017-Aug-20 04:58N 40°39' W 008°43'0 0.0
2017-Aug-20 04:28N 40°39' W 008°43'0 0.0
2017-Aug-20 03:58N 40°39' W 008°43'0 0.0
2017-Aug-20 03:28N 40°39' W 008°43'0 0.0
2017-Aug-20 00:52N 40°39' W 008°43'0 0.0
2017-Aug-19 23:58N 40°39' W 008°43'0 0.0
2017-Aug-19 23:28N 40°39' W 008°43'0 0.0
2017-Aug-19 22:58N 40°39' W 008°43'0 0.0
2017-Aug-19 20:34N 40°39' W 008°43'0 0.0
2017-Aug-19 20:22N 40°39' W 008°43'0 0.0
2017-Aug-19 19:58N 40°39' W 008°43'0 0.0
2017-Aug-19 07:58N 40°39' W 008°43'0 0.0
2017-Aug-19 07:28N 40°39' W 008°43'0 0.0
2017-Aug-19 04:52N 40°39' W 008°43'0 0.0
2017-Aug-19 04:22N 40°39' W 008°43'0 0.0
2017-Aug-19 03:58N 40°39' W 008°43'0 0.0
2017-Aug-19 03:28N 40°39' W 008°43'0 0.0
2017-Aug-19 02:58N 40°39' W 008°43'  

Dump ship's entire track history